createdAt,value
2017-06-09T00:01:13.570Z,1010.67
2017-06-09T00:02:10.160Z,1010.68
2017-06-09T00:03:10.108Z,1010.7
2017-06-09T00:04:10.044Z,1010.71
2017-06-09T00:05:09.983Z,1010.7
2017-06-09T00:06:09.911Z,1010.68
2017-06-09T00:07:09.848Z,1010.68
2017-06-09T00:08:09.796Z,1010.66
2017-06-09T00:09:09.733Z,1010.67
2017-06-09T00:10:09.660Z,1010.7
2017-06-09T00:11:09.607Z,1010.71
2017-06-09T00:12:09.535Z,1010.71
2017-06-09T00:13:09.473Z,1010.68
2017-06-09T00:14:09.411Z,1010.64
2017-06-09T00:15:09.347Z,1010.66
2017-06-09T00:16:09.286Z,1010.64
2017-06-09T00:17:09.225Z,1010.64
2017-06-09T00:18:09.161Z,1010.62
2017-06-09T00:19:09.108Z,1010.65
2017-06-09T00:20:09.049Z,1010.62
2017-06-09T00:21:08.973Z,1010.66
2017-06-09T00:22:08.921Z,1010.6
2017-06-09T00:23:08.848Z,1010.61
2017-06-09T00:24:08.789Z,1010.62
2017-06-09T00:25:08.734Z,1010.63
2017-06-09T00:26:08.696Z,1010.64
2017-06-09T00:27:08.598Z,1010.64
2017-06-09T00:28:08.538Z,1010.61
2017-06-09T00:29:08.484Z,1010.6
2017-06-09T00:30:08.421Z,1010.62
2017-06-09T00:31:08.350Z,1010.6
2017-06-09T00:32:08.386Z,1010.59
2017-06-09T00:33:08.234Z,1010.58
2017-06-09T00:34:08.161Z,1010.59
2017-06-09T00:35:08.100Z,1010.57
2017-06-09T00:36:08.047Z,1010.58
2017-06-09T00:37:07.974Z,1010.6
2017-06-09T00:38:07.922Z,1010.55
2017-06-09T00:39:07.850Z,1010.6
2017-06-09T00:40:07.791Z,1010.57
2017-06-09T00:41:07.733Z,1010.54
2017-06-09T00:42:07.661Z,1010.53
2017-06-09T00:43:07.610Z,1010.52
2017-06-09T00:44:07.546Z,1010.49
2017-06-09T00:45:07.485Z,1010.51
2017-06-09T00:46:07.416Z,1010.49
2017-06-09T00:47:07.350Z,1010.46
2017-06-09T00:48:07.287Z,1010.45
2017-06-09T00:49:07.225Z,1010.47
2017-06-09T00:50:07.162Z,1010.46
2017-06-09T00:51:07.100Z,1010.46
2017-06-09T00:52:07.046Z,1010.43
2017-06-09T00:53:06.986Z,1010.43
2017-06-09T00:54:06.913Z,1010.38
2017-06-09T00:55:06.850Z,1010.39
2017-06-09T00:56:06.798Z,1010.36
2017-06-09T00:57:06.735Z,1010.4
2017-06-09T00:58:06.674Z,1010.36
2017-06-09T00:59:06.611Z,1010.34
2017-06-09T01:00:06.547Z,1010.35
2017-06-09T01:01:06.486Z,1010.33
2017-06-09T01:02:06.413Z,1010.31
2017-06-09T01:03:06.360Z,1010.3
2017-06-09T01:04:06.300Z,1010.29
2017-06-09T01:05:06.235Z,1010.3
2017-06-09T01:06:06.162Z,1010.27
2017-06-09T01:07:06.100Z,1010.23
2017-06-09T01:08:06.049Z,1010.21
2017-06-09T01:09:05.976Z,1010.27
2017-06-09T01:10:05.922Z,1010.23
2017-06-09T01:11:05.851Z,1010.23
2017-06-09T01:12:05.789Z,1010.2
2017-06-09T01:13:05.737Z,1010.18
2017-06-09T01:14:05.674Z,1010.17
2017-06-09T01:15:05.612Z,1010.11
2017-06-09T01:16:05.538Z,1010.1
2017-06-09T01:17:05.476Z,1010.11
2017-06-09T01:18:05.412Z,1010.09
2017-06-09T01:19:05.352Z,1010.08
2017-06-09T01:20:05.299Z,1010.06
2017-06-09T01:21:05.237Z,1010.03
2017-06-09T01:22:05.163Z,1010.02
2017-06-09T01:23:05.462Z,1010.01
2017-06-09T01:24:05.039Z,1009.98
2017-06-09T01:25:04.976Z,1009.95
2017-06-09T01:26:04.915Z,1009.97
2017-06-09T01:27:04.862Z,1009.93
2017-06-09T01:28:04.788Z,1009.98
2017-06-09T01:29:04.726Z,1009.93
2017-06-09T01:30:04.673Z,1009.95
2017-06-09T01:31:04.603Z,1009.95
2017-06-09T01:32:04.538Z,1009.94
2017-06-09T01:33:04.486Z,1009.96
2017-06-09T01:34:04.415Z,1009.92
2017-06-09T01:35:04.362Z,1009.87
2017-06-09T01:36:04.300Z,1009.87
2017-06-09T01:37:04.228Z,1009.85
2017-06-09T01:38:04.166Z,1009.83
2017-06-09T01:39:04.112Z,1009.83
2017-06-09T01:40:04.051Z,1009.81
2017-06-09T01:41:03.989Z,1009.84
2017-06-09T01:42:03.925Z,1009.79
2017-06-09T01:43:03.853Z,1009.81
2017-06-09T01:44:03.800Z,1009.76
2017-06-09T01:45:03.731Z,1009.79
2017-06-09T01:46:03.675Z,1009.77
2017-06-09T01:47:03.612Z,1009.77
2017-06-09T01:48:03.551Z,1009.72
2017-06-09T01:49:03.488Z,1009.71
2017-06-09T01:50:03.424Z,1009.71
2017-06-09T01:51:03.352Z,1009.7
2017-06-09T01:52:03.290Z,1009.69
2017-06-09T01:53:03.228Z,1009.67
2017-06-09T01:54:03.177Z,1009.64
2017-06-09T01:55:03.114Z,1009.64
2017-06-09T01:56:03.041Z,1009.63
2017-06-09T01:57:02.994Z,1009.64
2017-06-09T01:58:02.915Z,1009.63
2017-06-09T01:59:02.854Z,1009.61
2017-06-09T02:00:02.800Z,1009.59
2017-06-09T02:01:02.737Z,1009.56
2017-06-09T02:02:02.675Z,1009.57
2017-06-09T02:03:02.603Z,1009.56
2017-06-09T02:04:02.615Z,1009.54
2017-06-09T02:05:02.477Z,1009.52
2017-06-09T02:06:02.425Z,1009.5
2017-06-09T02:07:02.362Z,1009.5
2017-06-09T02:08:02.288Z,1009.52
2017-06-09T02:09:02.236Z,1009.51
2017-06-09T02:10:02.165Z,1009.49
2017-06-09T02:11:02.102Z,1009.47
2017-06-09T02:12:02.041Z,1009.47
2017-06-09T02:13:01.977Z,1009.47
2017-06-09T02:14:01.925Z,1009.49
2017-06-09T02:15:01.855Z,1009.46
2017-06-09T02:16:01.800Z,1009.46
2017-06-09T02:17:01.737Z,1009.44
2017-06-09T02:18:01.675Z,1009.44
2017-06-09T02:19:01.612Z,1009.47
2017-06-09T02:20:01.539Z,1009.44
2017-06-09T02:21:01.488Z,1009.46
2017-06-09T02:22:01.425Z,1009.48
2017-06-09T02:23:01.352Z,1009.46
2017-06-09T02:24:01.289Z,1009.48
2017-06-09T02:25:01.237Z,1009.46
2017-06-09T02:26:01.165Z,1009.49
2017-06-09T02:27:01.101Z,1009.47
2017-06-09T02:28:01.039Z,1009.46
2017-06-09T02:29:00.987Z,1009.43
2017-06-09T02:30:00.924Z,1009.43
2017-06-09T02:31:00.851Z,1009.4
2017-06-09T02:32:00.790Z,1009.4
2017-06-09T02:33:00.739Z,1009.42
2017-06-09T02:34:00.664Z,1009.4
2017-06-09T02:35:00.612Z,1009.4
2017-06-09T02:36:00.550Z,1009.39
2017-06-09T02:37:00.477Z,1009.4
2017-06-09T02:38:00.413Z,1009.38
2017-06-09T02:39:00.361Z,1009.42
2017-06-09T02:40:00.300Z,1009.38
2017-06-09T02:41:00.226Z,1009.42
2017-06-09T02:42:00.164Z,1009.44
2017-06-09T02:43:00.111Z,1009.4
2017-06-09T02:44:00.048Z,1009.42
2017-06-09T02:44:59.985Z,1009.38
2017-06-09T02:45:59.913Z,1009.42
2017-06-09T02:46:59.872Z,1009.41
2017-06-09T02:47:59.799Z,1009.41
2017-06-09T02:48:59.725Z,1009.43
2017-06-09T02:49:59.663Z,1009.41
2017-06-09T02:50:59.601Z,1009.41
2017-06-09T02:51:59.538Z,1009.44
2017-06-09T02:52:59.475Z,1009.45
2017-06-09T02:53:59.413Z,1009.42
2017-06-09T02:54:59.351Z,1009.39
2017-06-09T02:55:59.298Z,1009.4
2017-06-09T02:56:59.236Z,1009.39
2017-06-09T02:57:59.173Z,1009.39
2017-06-09T02:58:59.101Z,1009.39
2017-06-09T02:59:59.040Z,1009.35
2017-06-09T03:00:58.986Z,1009.38
2017-06-09T03:01:58.913Z,1009.37
2017-06-09T03:02:58.860Z,1009.36
2017-06-09T03:03:58.787Z,1009.33
2017-06-09T03:04:58.725Z,1009.34
2017-06-09T03:05:58.663Z,1009.33
2017-06-09T03:06:58.600Z,1009.35
2017-06-09T03:07:58.548Z,1009.37
2017-06-09T03:08:58.475Z,1009.34
2017-06-09T03:09:58.413Z,1009.38
2017-06-09T03:10:58.351Z,1009.4
2017-06-09T03:11:58.288Z,1009.46
2017-06-09T03:12:58.237Z,1009.47
2017-06-09T03:13:58.173Z,1009.48
2017-06-09T03:14:58.110Z,1009.53
2017-06-09T03:15:58.049Z,1009.51
2017-06-09T03:16:57.977Z,1009.51
2017-06-09T03:17:58.009Z,1009.53
2017-06-09T03:18:57.861Z,1009.59
2017-06-09T03:19:57.789Z,1009.64
2017-06-09T03:20:57.735Z,1009.65
2017-06-09T03:21:57.673Z,1009.66
2017-06-09T03:22:57.600Z,1009.67
2017-06-09T03:23:57.548Z,1009.66
2017-06-09T03:24:57.485Z,1009.7
2017-06-09T03:25:57.423Z,1009.69
2017-06-09T03:26:57.360Z,1009.72
2017-06-09T03:27:57.289Z,1009.74
2017-06-09T03:28:57.234Z,1009.75
2017-06-09T03:29:57.172Z,1009.77
2017-06-09T03:30:57.110Z,1009.8
2017-06-09T03:31:57.036Z,1009.76
2017-06-09T03:32:56.984Z,1009.77
2017-06-09T03:33:56.913Z,1009.81
2017-06-09T03:34:56.860Z,1009.78
2017-06-09T03:35:56.786Z,1009.77
2017-06-09T03:36:56.725Z,1009.8
2017-06-09T03:37:56.661Z,1009.79
2017-06-09T03:38:56.599Z,1009.79
2017-06-09T03:39:56.536Z,1009.79
2017-06-09T03:40:56.486Z,1009.75
2017-06-09T03:41:56.412Z,1009.73
2017-06-09T03:42:56.358Z,1009.72
2017-06-09T03:43:56.296Z,1009.69
2017-06-09T03:44:56.233Z,1009.69
2017-06-09T03:45:56.161Z,1009.68
2017-06-09T03:46:56.108Z,1009.71
2017-06-09T03:47:56.035Z,1009.67
2017-06-09T03:48:55.973Z,1009.69
2017-06-09T03:49:55.921Z,1009.68
2017-06-09T03:50:55.847Z,1009.7
2017-06-09T03:51:55.795Z,1009.67
2017-06-09T03:52:55.723Z,1009.67
2017-06-09T03:53:55.659Z,1009.66
2017-06-09T03:54:55.607Z,1009.72
2017-06-09T03:55:55.558Z,1009.7
2017-06-09T03:56:55.473Z,1009.71
2017-06-09T03:57:55.419Z,1009.73
2017-06-09T03:58:55.347Z,1009.68
2017-06-09T03:59:55.286Z,1009.7
2017-06-09T04:00:55.233Z,1009.7
2017-06-09T04:01:55.171Z,1009.76
2017-06-09T04:02:55.107Z,1009.75
2017-06-09T04:03:55.044Z,1009.8
2017-06-09T04:04:54.971Z,1009.78
2017-06-09T04:05:54.908Z,1009.79
2017-06-09T04:06:54.856Z,1009.77
2017-06-09T04:07:54.794Z,1009.8
2017-06-09T04:08:54.731Z,1009.82
2017-06-09T04:09:54.658Z,1009.77
2017-06-09T04:10:54.606Z,1009.77
2017-06-09T04:11:54.534Z,1009.74
2017-06-09T04:12:54.470Z,1009.73
2017-06-09T04:13:54.408Z,1009.76
2017-06-09T04:14:54.356Z,1009.73
2017-06-09T04:15:54.297Z,1009.76
2017-06-09T04:16:54.221Z,1009.77
2017-06-09T04:17:54.158Z,1009.81
2017-06-09T04:18:54.095Z,1009.78
2017-06-09T04:19:54.032Z,1009.79
2017-06-09T04:20:53.970Z,1009.8
2017-06-09T04:21:53.918Z,1009.82
2017-06-09T04:22:53.855Z,1009.87
2017-06-09T04:23:53.792Z,1009.9
2017-06-09T04:24:53.720Z,1009.87
2017-06-09T04:25:53.657Z,1009.88
2017-06-09T04:26:53.605Z,1009.86
2017-06-09T04:27:53.532Z,1009.85
2017-06-09T04:28:53.469Z,1009.85
2017-06-09T04:29:53.417Z,1009.87
2017-06-09T04:30:53.343Z,1009.87
2017-06-09T04:31:53.281Z,1009.83
2017-06-09T04:32:53.219Z,1009.84
2017-06-09T04:33:53.156Z,1009.83
2017-06-09T04:34:53.103Z,1009.85
2017-06-09T04:35:53.044Z,1009.8
2017-06-09T04:36:52.979Z,1009.77
2017-06-09T04:37:52.916Z,1009.75
2017-06-09T04:38:52.853Z,1009.78
2017-06-09T04:39:52.781Z,1009.73
2017-06-09T04:40:52.729Z,1009.72
2017-06-09T04:41:52.665Z,1009.67
2017-06-09T04:42:52.593Z,1009.67
2017-06-09T04:43:52.531Z,1009.63
2017-06-09T04:44:52.468Z,1009.65
2017-06-09T04:45:52.416Z,1009.6
2017-06-09T04:46:52.344Z,1009.59
2017-06-09T04:47:52.291Z,1009.54
2017-06-09T04:48:52.231Z,1009.54
2017-06-09T04:49:52.167Z,1009.51
2017-06-09T04:50:52.097Z,1009.54
2017-06-09T04:51:52.032Z,1009.55
2017-06-09T04:52:51.979Z,1009.58
2017-06-09T04:53:51.915Z,1009.56
2017-06-09T04:54:51.854Z,1009.56
2017-06-09T04:55:51.781Z,1009.57
2017-06-09T04:56:51.718Z,1009.55
2017-06-09T04:57:51.656Z,1009.5
2017-06-09T04:58:51.604Z,1009.5
2017-06-09T04:59:51.540Z,1009.5
2017-06-09T05:00:51.468Z,1009.44
2017-06-09T05:01:56.194Z,1009.44
2017-06-09T05:02:51.353Z,1009.41
2017-06-09T05:03:51.280Z,1009.37
2017-06-09T05:04:51.218Z,1009.38
2017-06-09T05:05:51.267Z,1009.36
2017-06-09T05:06:51.094Z,1009.32
2017-06-09T05:07:51.030Z,1009.35
2017-06-09T05:08:50.966Z,1009.33
2017-06-09T05:09:50.905Z,1009.34
2017-06-09T05:10:50.852Z,1009.35
2017-06-09T05:11:50.779Z,1009.33
2017-06-09T05:12:50.718Z,1009.28
2017-06-09T05:13:50.656Z,1009.28
2017-06-09T05:14:50.592Z,1009.26
2017-06-09T05:15:50.539Z,1009.24
2017-06-09T05:16:50.467Z,1009.26
2017-06-09T05:17:50.414Z,1009.29
2017-06-09T05:18:50.344Z,1009.28
2017-06-09T05:19:50.289Z,1009.29
2017-06-09T05:20:50.217Z,1009.34
2017-06-09T05:21:50.154Z,1009.35
2017-06-09T05:22:50.104Z,1009.29
2017-06-09T05:23:50.031Z,1009.37
2017-06-09T05:24:49.966Z,1009.36
2017-06-09T05:25:49.904Z,1009.35
2017-06-09T05:26:49.850Z,1009.36
2017-06-09T05:27:49.791Z,1009.35
2017-06-09T05:28:49.729Z,1009.37
2017-06-09T05:29:49.653Z,1009.39
2017-06-09T05:30:49.741Z,1009.42
2017-06-09T05:31:49.529Z,1009.43
2017-06-09T05:32:49.465Z,1009.43
2017-06-09T05:33:49.413Z,1009.45
2017-06-09T05:34:49.341Z,1009.47
2017-06-09T05:35:49.279Z,1009.49
2017-06-09T05:36:49.215Z,1009.47
2017-06-09T05:37:49.167Z,1009.46
2017-06-09T05:38:49.090Z,1009.47
2017-06-09T05:39:49.038Z,1009.43
2017-06-09T05:40:48.976Z,1009.43
2017-06-09T05:41:48.913Z,1009.41
2017-06-09T05:42:48.850Z,1009.45
2017-06-09T05:43:48.787Z,1009.44
2017-06-09T05:44:48.725Z,1009.45
2017-06-09T05:45:48.653Z,1009.45
2017-06-09T05:46:48.600Z,1009.44
2017-06-09T05:47:48.526Z,1009.36
2017-06-09T05:48:48.474Z,1009.39
2017-06-09T05:49:48.414Z,1009.38
2017-06-09T05:50:48.339Z,1009.38
2017-06-09T05:51:48.276Z,1009.41
2017-06-09T05:52:48.214Z,1009.43
2017-06-09T05:53:48.153Z,1009.39
2017-06-09T05:54:48.088Z,1009.4
2017-06-09T05:55:48.041Z,1009.42
2017-06-09T05:56:47.974Z,1009.48
2017-06-09T05:57:47.912Z,1009.47
2017-06-09T05:58:47.839Z,1009.48
2017-06-09T05:59:47.776Z,1009.51
2017-06-09T06:00:47.713Z,1009.49
2017-06-09T06:01:47.660Z,1009.5
2017-06-09T06:02:47.598Z,1009.54
2017-06-09T06:03:47.535Z,1009.56
2017-06-09T06:04:47.473Z,1009.56
2017-06-09T06:05:47.399Z,1009.57
2017-06-09T06:06:47.348Z,1009.57
2017-06-09T06:07:47.275Z,1009.54
2017-06-09T06:08:47.212Z,1009.59
2017-06-09T06:09:47.160Z,1009.6
2017-06-09T06:10:47.088Z,1009.59
2017-06-09T06:11:47.035Z,1009.58
2017-06-09T06:12:46.972Z,1009.56
2017-06-09T06:13:46.900Z,1009.53
2017-06-09T06:14:46.837Z,1009.56
2017-06-09T06:15:46.775Z,1009.55
2017-06-09T06:16:46.721Z,1009.54
2017-06-09T06:17:46.650Z,1009.51
2017-06-09T06:18:46.586Z,1009.53
2017-06-09T06:19:46.524Z,1009.55
2017-06-09T06:20:46.471Z,1009.55
2017-06-09T06:21:46.410Z,1009.54
2017-06-09T06:22:46.338Z,1009.53
2017-06-09T06:23:46.275Z,1009.55
2017-06-09T06:24:46.223Z,1009.55
2017-06-09T06:25:46.160Z,1009.53
2017-06-09T06:26:46.087Z,1009.52
2017-06-09T06:27:46.034Z,1009.54
2017-06-09T06:28:45.962Z,1009.5
2017-06-09T06:29:45.914Z,1009.51
2017-06-09T06:30:45.846Z,1009.5
2017-06-09T06:31:45.774Z,1009.49
2017-06-09T06:32:45.712Z,1009.47
2017-06-09T06:33:45.650Z,1009.48
2017-06-09T06:34:45.596Z,1009.48
2017-06-09T06:35:45.534Z,1009.47
2017-06-09T06:36:45.462Z,1009.46
2017-06-09T06:37:45.410Z,1009.46
2017-06-09T06:38:45.346Z,1009.42
2017-06-09T06:39:45.274Z,1009.38
2017-06-09T06:40:45.212Z,1009.4
2017-06-09T06:41:45.158Z,1009.36
2017-06-09T06:42:45.086Z,1009.35
2017-06-09T06:43:45.033Z,1009.37
2017-06-09T06:44:44.971Z,1009.37
2017-06-09T06:45:44.897Z,1009.33
2017-06-09T06:46:44.835Z,1009.32
2017-06-09T06:47:44.786Z,1009.3
2017-06-09T06:48:44.721Z,1009.33
2017-06-09T06:49:44.648Z,1009.3
2017-06-09T06:50:44.585Z,1009.3
2017-06-09T06:51:44.533Z,1009.31
2017-06-09T06:52:44.470Z,1009.34
2017-06-09T06:53:44.407Z,1009.37
2017-06-09T06:54:44.335Z,1009.36
2017-06-09T06:55:44.273Z,1009.39
2017-06-09T06:56:44.210Z,1009.39
2017-06-09T06:57:44.148Z,1009.38
2017-06-09T06:58:44.085Z,1009.39
2017-06-09T06:59:44.033Z,1009.4
2017-06-09T07:00:43.959Z,1009.34
2017-06-09T07:01:43.899Z,1009.37
2017-06-09T07:02:43.845Z,1009.37
2017-06-09T07:03:43.771Z,1009.34
2017-06-09T07:04:43.709Z,1009.4
2017-06-09T07:05:43.657Z,1009.41
2017-06-09T07:06:43.595Z,1009.39
2017-06-09T07:07:43.531Z,1009.41
2017-06-09T07:08:43.469Z,1009.41
2017-06-09T07:09:43.407Z,1009.39
2017-06-09T07:10:43.346Z,1009.39
2017-06-09T07:11:43.271Z,1009.39
2017-06-09T07:12:43.219Z,1009.43
2017-06-09T07:13:43.159Z,1009.43
2017-06-09T07:14:43.094Z,1009.4
2017-06-09T07:15:43.021Z,1009.4
2017-06-09T07:16:43.296Z,1009.38
2017-06-09T07:17:42.896Z,1009.39
2017-06-09T07:18:42.843Z,1009.36
2017-06-09T07:19:42.781Z,1009.36
2017-06-09T07:20:42.965Z,1009.33
2017-06-09T07:21:42.646Z,1009.33
2017-06-09T07:22:42.583Z,1009.3
2017-06-09T07:23:42.531Z,1009.26
2017-06-09T07:24:42.458Z,1009.25
2017-06-09T07:25:42.395Z,1009.21
2017-06-09T07:26:42.343Z,1009.17
2017-06-09T07:27:42.280Z,1009.2
2017-06-09T07:28:42.218Z,1009.19
2017-06-09T07:29:42.159Z,1009.13
2017-06-09T07:30:42.083Z,1009.12
2017-06-09T07:31:42.022Z,1009.15
2017-06-09T07:32:41.958Z,1009.13
2017-06-09T07:33:41.896Z,1009.08
2017-06-09T07:34:41.843Z,1009.12
2017-06-09T07:35:41.770Z,1009.11
2017-06-09T07:36:41.707Z,1009.05
2017-06-09T07:37:41.645Z,1009.04
2017-06-09T07:38:41.582Z,1009.02
2017-06-09T07:39:41.531Z,1008.99
2017-06-09T07:40:41.457Z,1008.98
2017-06-09T07:41:41.395Z,1008.97
2017-06-09T07:42:41.343Z,1008.92
2017-06-09T07:43:41.270Z,1008.9
2017-06-09T07:44:41.219Z,1008.89
2017-06-09T07:45:41.154Z,1008.84
2017-06-09T07:46:41.083Z,1008.79
2017-06-09T07:47:41.029Z,1008.82
2017-06-09T07:48:40.956Z,1008.8
2017-06-09T07:49:40.894Z,1008.73
2017-06-09T07:50:40.842Z,1008.75
2017-06-09T07:51:40.779Z,1008.71
2017-06-09T07:52:40.716Z,1008.72
2017-06-09T07:53:40.645Z,1008.7
2017-06-09T07:54:40.601Z,1008.71
2017-06-09T07:55:40.558Z,1008.75
2017-06-09T07:56:40.468Z,1008.73
2017-06-09T07:57:40.396Z,1008.72
2017-06-09T07:58:40.335Z,1008.72
2017-06-09T07:59:40.280Z,1008.76
2017-06-09T08:00:40.217Z,1008.78
2017-06-09T08:01:40.154Z,1008.78
2017-06-09T08:02:40.096Z,1008.8
2017-06-09T08:03:40.020Z,1008.76
2017-06-09T08:04:39.967Z,1008.77
2017-06-09T08:05:39.904Z,1008.77
2017-06-09T08:06:39.833Z,1008.76
2017-06-09T08:07:39.779Z,1008.78
2017-06-09T08:08:39.707Z,1008.82
2017-06-09T08:09:39.643Z,1008.83
2017-06-09T08:10:39.581Z,1008.79
2017-06-09T08:11:39.519Z,1008.8
2017-06-09T08:12:39.456Z,1008.79
2017-06-09T08:13:39.403Z,1008.79
2017-06-09T08:14:39.332Z,1008.79
2017-06-09T08:15:39.269Z,1008.72
2017-06-09T08:16:39.216Z,1008.79
2017-06-09T08:17:39.143Z,1008.78
2017-06-09T08:18:39.091Z,1008.72
2017-06-09T08:19:39.022Z,1008.7
2017-06-09T08:20:38.966Z,1008.68
2017-06-09T08:21:38.903Z,1008.71
2017-06-09T08:22:38.831Z,1008.71
2017-06-09T08:23:38.780Z,1008.67
2017-06-09T08:24:38.716Z,1008.76
2017-06-09T08:25:38.643Z,1008.76
2017-06-09T08:26:38.592Z,1008.73
2017-06-09T08:27:38.518Z,1008.79
2017-06-09T08:28:38.465Z,1008.82
2017-06-09T08:29:38.404Z,1008.7
2017-06-09T08:30:38.341Z,1008.71
2017-06-09T08:31:38.278Z,1008.71
2017-06-09T08:32:38.215Z,1008.71
2017-06-09T08:33:38.154Z,1008.64
2017-06-09T08:34:38.080Z,1008.69
2017-06-09T08:35:38.028Z,1008.68
2017-06-09T08:36:37.955Z,1008.6
2017-06-09T08:37:37.903Z,1008.63
2017-06-09T08:38:37.829Z,1008.63
2017-06-09T08:39:37.778Z,1008.57
2017-06-09T08:40:37.715Z,1008.58
2017-06-09T08:41:37.643Z,1008.63
2017-06-09T08:42:37.589Z,1008.59
2017-06-09T08:43:37.527Z,1008.56
2017-06-09T08:44:37.465Z,1008.6
2017-06-09T08:45:37.403Z,1008.56
2017-06-09T08:46:37.330Z,1008.59
2017-06-09T08:47:37.278Z,1008.57
2017-06-09T08:48:37.215Z,1008.58
2017-06-09T08:49:37.151Z,1008.58
2017-06-09T08:50:37.189Z,1008.55
2017-06-09T08:51:37.042Z,1008.52
2017-06-09T08:52:36.965Z,1008.54
2017-06-09T08:53:36.901Z,1008.52
2017-06-09T08:54:36.830Z,1008.51
2017-06-09T08:55:36.778Z,1008.49
2017-06-09T08:56:36.715Z,1008.44
2017-06-09T08:57:36.651Z,1008.44
2017-06-09T08:58:36.589Z,1008.39
2017-06-09T08:59:36.527Z,1008.47
2017-06-09T09:00:36.463Z,1008.45
2017-06-09T09:01:36.390Z,1008.46
2017-06-09T09:02:39.016Z,1008.43
2017-06-09T09:03:36.266Z,1008.42
2017-06-09T09:04:36.214Z,1008.39
2017-06-09T09:05:36.152Z,1008.46
2017-06-09T09:06:36.089Z,1008.44
2017-06-09T09:07:36.018Z,1008.4
2017-06-09T09:08:35.954Z,1008.41
2017-06-09T09:09:35.891Z,1008.43
2017-06-09T09:10:35.839Z,1008.49
2017-06-09T09:11:35.776Z,1008.48
2017-06-09T09:12:35.703Z,1008.42
2017-06-09T09:13:35.641Z,1008.41
2017-06-09T09:14:35.580Z,1008.42
2017-06-09T09:15:35.516Z,1008.41
2017-06-09T09:16:35.492Z,1008.43
2017-06-09T09:17:35.401Z,1008.39
2017-06-09T09:18:35.330Z,1008.44
2017-06-09T09:19:35.275Z,1008.47
2017-06-09T09:20:35.234Z,1008.43
2017-06-09T09:21:35.141Z,1008.45
2017-06-09T09:22:35.078Z,1008.43
2017-06-09T09:23:35.015Z,1008.47
2017-06-09T09:24:35.003Z,1008.4
2017-06-09T09:25:34.891Z,1008.42
2017-06-09T09:26:34.838Z,1008.39
2017-06-09T09:27:34.765Z,1008.39
2017-06-09T09:28:34.704Z,1008.39
2017-06-09T09:29:34.641Z,1008.35
2017-06-09T09:30:34.588Z,1008.41
2017-06-09T09:31:34.528Z,1008.37
2017-06-09T09:32:34.455Z,1008.36
2017-06-09T09:33:34.421Z,1008.31
2017-06-09T09:34:34.442Z,1008.3
2017-06-09T09:35:34.278Z,1008.27
2017-06-09T09:36:34.204Z,1008.27
2017-06-09T09:37:34.141Z,1008.25
2017-06-09T09:38:34.089Z,1008.3
2017-06-09T09:39:34.027Z,1008.19
2017-06-09T09:40:33.953Z,1008.18
2017-06-09T09:41:33.902Z,1008.15
2017-06-09T09:42:33.829Z,1008.16
2017-06-09T09:43:33.777Z,1008.16
2017-06-09T09:44:33.718Z,1008.15
2017-06-09T09:45:33.652Z,1008.1
2017-06-09T09:46:33.580Z,1008.12
2017-06-09T09:47:33.517Z,1008.08
2017-06-09T09:48:33.454Z,1008.01
2017-06-09T09:49:33.392Z,1008.04
2017-06-09T09:50:33.338Z,1008.07
2017-06-09T09:51:33.267Z,1008.05
2017-06-09T09:52:33.204Z,1008
2017-06-09T09:53:33.151Z,1008.01
2017-06-09T09:54:33.089Z,1008
2017-06-09T09:55:33.017Z,1008.01
2017-06-09T09:56:32.965Z,1008
2017-06-09T09:57:32.902Z,1008.03
2017-06-09T09:58:32.840Z,1007.99
2017-06-09T09:59:32.767Z,1008
2017-06-09T10:00:32.705Z,1007.93
2017-06-09T10:01:32.653Z,1007.91
2017-06-09T10:02:32.589Z,1007.9
2017-06-09T10:03:32.516Z,1007.92
2017-06-09T10:04:32.466Z,1007.9
2017-06-09T10:05:32.403Z,1007.89
2017-06-09T10:06:32.341Z,1007.86
2017-06-09T10:07:32.267Z,1007.89
2017-06-09T10:08:32.215Z,1007.85
2017-06-09T10:09:32.152Z,1007.89
2017-06-09T10:10:32.089Z,1007.85
2017-06-09T10:11:32.020Z,1007.79
2017-06-09T10:12:31.965Z,1007.78
2017-06-09T10:13:31.902Z,1007.86
2017-06-09T10:14:31.831Z,1007.78
2017-06-09T10:15:31.767Z,1007.78
2017-06-09T10:16:31.705Z,1007.77
2017-06-09T10:17:31.642Z,1007.78
2017-06-09T10:18:31.580Z,1007.78
2017-06-09T10:19:31.518Z,1007.7
2017-06-09T10:20:31.456Z,1007.66
2017-06-09T10:21:31.393Z,1007.64
2017-06-09T10:22:31.340Z,1007.64
2017-06-09T10:23:31.277Z,1007.65
2017-06-09T10:24:31.214Z,1007.57
2017-06-09T10:25:31.153Z,1007.61
2017-06-09T10:26:31.083Z,1007.6
2017-06-09T10:27:31.029Z,1007.57
2017-06-09T10:28:30.994Z,1007.52
2017-06-09T10:29:30.933Z,1007.54
2017-06-09T10:30:30.842Z,1007.52
2017-06-09T10:31:30.782Z,1007.54
2017-06-09T10:32:30.706Z,1007.53
2017-06-09T10:33:30.653Z,1007.55
2017-06-09T10:34:30.582Z,1007.6
2017-06-09T10:35:30.518Z,1007.53
2017-06-09T10:36:30.457Z,1007.49
2017-06-09T10:37:30.405Z,1007.52
2017-06-09T10:38:30.343Z,1007.47
2017-06-09T10:39:30.270Z,1007.48
2017-06-09T10:40:30.218Z,1007.47
2017-06-09T10:41:30.147Z,1007.47
2017-06-09T10:42:30.086Z,1007.4
2017-06-09T10:43:30.068Z,1007.42
2017-06-09T10:44:29.969Z,1007.39
2017-06-09T10:45:29.907Z,1007.39
2017-06-09T10:46:29.844Z,1007.37
2017-06-09T10:47:29.782Z,1007.37
2017-06-09T10:48:29.710Z,1007.35
2017-06-09T10:49:29.647Z,1007.32
2017-06-09T10:50:29.595Z,1007.33
2017-06-09T10:51:29.523Z,1007.31
2017-06-09T10:52:29.471Z,1007.26
2017-06-09T10:53:29.421Z,1007.27
2017-06-09T10:54:29.347Z,1007.26
2017-06-09T10:55:29.284Z,1007.29
2017-06-09T10:56:29.212Z,1007.2
2017-06-09T10:57:29.161Z,1007.14
2017-06-09T10:58:29.097Z,1007.11
2017-06-09T10:59:29.035Z,1007.14
2017-06-09T11:00:28.963Z,1007.18
2017-06-09T11:01:28.910Z,1007.15
2017-06-09T11:02:28.848Z,1007.15
2017-06-09T11:03:28.776Z,1007.11
2017-06-09T11:04:28.724Z,1007.13
2017-06-09T11:05:28.652Z,1007.08
2017-06-09T11:06:28.593Z,1007.07
2017-06-09T11:07:28.538Z,1007.1
2017-06-09T11:08:28.476Z,1007.11
2017-06-09T11:09:28.403Z,1007.1
2017-06-09T11:10:28.452Z,1007.03
2017-06-09T11:11:28.289Z,1007.06
2017-06-09T11:12:28.226Z,1007.03
2017-06-09T11:13:28.163Z,1007.07
2017-06-09T11:14:28.102Z,1007.01
2017-06-09T11:15:28.030Z,1007.02
2017-06-09T11:16:27.968Z,1007.01
2017-06-09T11:17:28.030Z,1006.99
2017-06-09T11:18:27.843Z,1006.99
2017-06-09T11:19:27.781Z,1006.93
2017-06-09T11:20:27.724Z,1006.89
2017-06-09T11:21:27.657Z,1006.84
2017-06-09T11:22:27.605Z,1006.83
2017-06-09T11:23:27.542Z,1006.83
2017-06-09T11:24:27.470Z,1006.83
2017-06-09T11:25:27.419Z,1006.84
2017-06-09T11:26:27.355Z,1006.82
2017-06-09T11:27:27.282Z,1006.8
2017-06-09T11:28:27.232Z,1006.78
2017-06-09T11:29:27.170Z,1006.76
2017-06-09T11:30:27.106Z,1006.75
2017-06-09T11:31:27.034Z,1006.72
2017-06-09T11:32:26.976Z,1006.71
2017-06-09T11:33:26.910Z,1006.72
2017-06-09T11:34:26.847Z,1006.66
2017-06-09T11:35:26.785Z,1006.68
2017-06-09T11:36:26.723Z,1006.65
2017-06-09T11:37:26.662Z,1006.65
2017-06-09T11:38:26.608Z,1006.63
2017-06-09T11:39:26.535Z,1006.58
2017-06-09T11:40:26.475Z,1006.61
2017-06-09T11:41:26.422Z,1006.61
2017-06-09T11:42:26.349Z,1006.66
2017-06-09T11:43:26.298Z,1006.63
2017-06-09T11:44:26.226Z,1006.62
2017-06-09T11:45:26.164Z,1006.55
2017-06-09T11:46:26.111Z,1006.59
2017-06-09T11:47:26.043Z,1006.62
2017-06-09T11:48:25.989Z,1006.61
2017-06-09T11:49:25.925Z,1006.6
2017-06-09T11:50:25.852Z,1006.61
2017-06-09T11:51:25.791Z,1006.6
2017-06-09T11:52:25.738Z,1006.63
2017-06-09T11:53:25.667Z,1006.59
2017-06-09T11:54:25.614Z,1006.55
2017-06-09T11:55:25.554Z,1006.51
2017-06-09T11:56:25.480Z,1006.49
2017-06-09T11:57:25.417Z,1006.44
2017-06-09T11:58:25.356Z,1006.44
2017-06-09T11:59:25.304Z,1006.43
2017-06-09T12:00:25.242Z,1006.44
2017-06-09T12:01:25.207Z,1006.38
2017-06-09T12:02:25.108Z,1006.38
2017-06-09T12:03:25.058Z,1006.36
2017-06-09T12:04:24.993Z,1006.39
2017-06-09T12:05:24.932Z,1006.34
2017-06-09T12:06:24.869Z,1006.37
2017-06-09T12:07:24.798Z,1006.41
2017-06-09T12:08:24.735Z,1006.37